Terminal Aerodrome Forecast
Issued by NWS

Home | Current Version | Previous Version | Text Only | Print | Product List | Glossary Off
Versions: 1 2 3 4 5 6 7 8 9 10 11 12 13 14 15 16 17

089
FTUS43 KOAX 280520
TAFCDR
TAF
KCDR 280520Z 2806/2906 05006KT P6SM -RA BKN050 OVC080
     FM281200 10005KT 5SM -RA BKN025 OVC050
     FM281500 11008KT 1 1/2SM -RA BKN007 OVC015
     FM281900 11012KT 1SM -RA OVC007=

USA.gov is the U.S. government's official web portal to all federal, state and local government web resources and services.